Time;durP1;ratioP1;P1;durP2;ratioP2;P2;SDS_P1;SDS_P2;PMS_P1;PMS_P2;Temp;Humidity;BMP_temperature;BMP_pressure;BME280_temperature;BME280_humidity;BME280_pressure;Samples;Min_cycle;Max_cycle;Signal;HPM_P1;HPM_P2
2023/07/23 00:07:31;;;;;;;7.7;6;;;;;;;13.43;84.06;;;;;
2023/07/23 00:17:31;;;;;;;7.7;6;;;;;;;13.28;85.45;;;;;
2023/07/23 00:28:31;;;;;;;9;5.4;;;;;;;13.16;84.65;;;;;
2023/07/23 00:38:31;;;;;;;9;5.4;;;;;;;12.94;86.33;;;;;
2023/07/23 00:49:31;;;;;;;9.7;5.1;;;;;;;12.86;86.12;;;;;
2023/07/23 00:59:32;;;;;;;9.7;5.1;;;;;;;12.78;85.99;;;;;
2023/07/23 01:09:31;;;;;;;9.7;5.1;;;;;;;12.58;86.78;;;;;
2023/07/23 01:20:31;;;;;;;7.9;4.4;;;;;;;12.53;87.15;;;;;
2023/07/23 01:30:33;;;;;;;7.9;4.4;;;;;;;12.49;87.27;;;;;
2023/07/23 01:41:31;;;;;;;7.9;4.4;;;;;;;12.41;87.35;;;;;
2023/07/23 01:52:31;;;;;;;8.2;4.3;;;;;;;12.33;86.85;;;;;
2023/07/23 02:02:32;;;;;;;8.2;4.3;;;;;;;12.23;86.44;;;;;
2023/07/23 02:12:31;;;;;;;8.2;4.3;;;;;;;12.1;86.01;;;;;
2023/07/23 02:23:31;;;;;;;8;4.1;;;;;;;11.93;88.93;;;;;
2023/07/23 02:34:31;;;;;;;8;4.1;;;;;;;11.92;88.68;;;;;
2023/07/23 02:45:31;;;;;;;8;4.1;;;;;;;11.9;89.09;;;;;
2023/07/23 02:56:31;;;;;;;7.2;4.3;;;;;;;11.9;89.71;;;;;
2023/07/23 03:06:32;;;;;;;7.2;4.3;;;;;;;11.84;89.16;;;;;
2023/07/23 03:17:33;;;;;;;7.2;4.3;;;;;;;11.89;90.33;;;;;
2023/07/23 03:28:32;;;;;;;11.4;5.9;;;;;;;12.02;90.13;;;;;
2023/07/23 03:38:32;;;;;;;11.4;5.9;;;;;;;12.2;90.17;;;;;
2023/07/23 03:48:32;;;;;;;9.6;5.3;;;;;;;12.48;89.76;;;;;
2023/07/23 03:58:32;;;;;;;9.6;5.3;;;;;;;12.76;89.5;;;;;
2023/07/23 04:09:32;;;;;;;9.6;5.3;;;;;;;13.08;89.64;;;;;
2023/07/23 04:20:32;;;;;;;10.3;6.3;;;;;;;13.45;89.1;;;;;
2023/07/23 04:30:33;;;;;;;10.3;6.3;;;;;;;13.76;87.81;;;;;
2023/07/23 04:40:34;;;;;;;10.3;6.3;;;;;;;13.95;86.44;;;;;
2023/07/23 04:51:32;;;;;;;10.1;8;;;;;;;14.37;85.58;;;;;
2023/07/23 05:01:34;;;;;;;10.1;8;;;;;;;14.95;84.77;;;;;
2023/07/23 05:12:32;;;;;;;10.1;8;;;;;;;15.61;83.23;;;;;
2023/07/23 05:23:32;;;;;;;8.9;7.2;;;;;;;16.17;81.58;;;;;
2023/07/23 05:34:32;;;;;;;8.9;7.2;;;;;;;17.13;80.38;;;;;
2023/07/23 05:44:32;;;;;;;8.9;7.2;;;;;;;18.13;73.93;;;;;
2023/07/23 05:54:32;;;;;;;9;7;;;;;;;18.64;71.98;;;;;
2023/07/23 06:05:32;;;;;;;9;7;;;;;;;18.83;71.77;;;;;
2023/07/23 06:15:33;;;;;;;9;7;;;;;;;19.46;70.52;;;;;
2023/07/23 06:26:32;;;;;;;8.7;6.3;;;;;;;20.16;69.16;;;;;
2023/07/23 06:37:32;;;;;;;8.7;6.3;;;;;;;20.88;66.21;;;;;
2023/07/23 06:47:32;;;;;;;8.7;6.3;;;;;;;21.27;65.83;;;;;
2023/07/23 06:57:32;;;;;;;8.2;5.3;;;;;;;21.44;65.66;;;;;
2023/07/23 07:07:33;;;;;;;8.2;5.3;;;;;;;22.04;66.24;;;;;
2023/07/23 07:17:33;;;;;;;8.2;5.3;;;;;;;22.6;67.89;;;;;
2023/07/23 07:28:32;;;;;;;8.2;5.6;;;;;;;23.05;65.07;;;;;
2023/07/23 07:38:32;;;;;;;8.2;5.6;;;;;;;23.84;61.89;;;;;
2023/07/23 07:48:33;;;;;;;6.9;4.4;;;;;;;24.12;56.43;;;;;
2023/07/23 07:58:32;;;;;;;6.9;4.4;;;;;;;24.71;55.46;;;;;
2023/07/23 08:09:32;;;;;;;6.9;4.4;;;;;;;25.14;53.75;;;;;
2023/07/23 08:20:34;;;;;;;5.4;2.9;;;;;;;25.39;54.33;;;;;
2023/07/23 08:30:33;;;;;;;5.4;2.9;;;;;;;25.09;51.95;;;;;
2023/07/23 08:41:32;;;;;;;5.4;2.9;;;;;;;25.15;52.24;;;;;
2023/07/23 08:52:32;;;;;;;6.1;3.2;;;;;;;24.89;51.1;;;;;
2023/07/23 09:02:32;;;;;;;6.1;3.2;;;;;;;24.89;49.99;;;;;
2023/07/23 09:12:32;;;;;;;6.1;3.2;;;;;;;25.14;47.67;;;;;
2023/07/23 09:23:32;;;;;;;4.9;2.4;;;;;;;25.15;48.88;;;;;
2023/07/23 09:34:33;;;;;;;4.9;2.4;;;;;;;25.46;46.27;;;;;
2023/07/23 09:45:32;;;;;;;4.9;2.4;;;;;;;25.91;46.14;;;;;
2023/07/23 09:56:32;;;;;;;4.5;2.1;;;;;;;26.17;40.63;;;;;
2023/07/23 10:06:32;;;;;;;4.5;2.1;;;;;;;26.64;40.03;;;;;
2023/07/23 10:16:33;;;;;;;4.5;2.1;;;;;;;27.11;39.01;;;;;
2023/07/23 10:27:33;;;;;;;5.5;2;;;;;;;27.7;36.89;;;;;
2023/07/23 10:37:39;;;;;;;5.5;2;;;;;;;28.51;39.08;;;;;
2023/07/23 10:47:40;;;;;;;5.5;2;;;;;;;28.55;35.78;;;;;
2023/07/23 10:58:40;;;;;;;5.2;1.8;;;;;;;28.53;36.57;;;;;
2023/07/23 11:08:39;;;;;;;5.2;1.8;;;;;;;28.49;35.68;;;;;
2023/07/23 11:18:40;;;;;;;4.6;2.1;;;;;;;28.36;36.4;;;;;
2023/07/23 11:29:39;;;;;;;4.6;2.1;;;;;;;27.66;38.72;;;;;
2023/07/23 11:40:40;;;;;;;4.6;2.1;;;;;;;27.57;39.36;;;;;
2023/07/23 11:50:39;;;;;;;5.1;2.5;;;;;;;27.74;39.56;;;;;
2023/07/23 12:00:42;;;;;;;5.1;2.5;;;;;;;27.86;37.61;;;;;
2023/07/23 12:11:39;;;;;;;5.1;2.5;;;;;;;28.25;37.02;;;;;
2023/07/23 12:21:40;;;;;;;7.9;5.7;;;;;;;28.68;36.87;;;;;
2023/07/23 12:32:40;;;;;;;7.9;5.7;;;;;;;29.43;39.37;;;;;
2023/07/23 12:43:40;;;;;;;7.9;5.7;;;;;;;28.81;35.96;;;;;
2023/07/23 12:53:40;;;;;;;4.8;2.5;;;;;;;28.46;42.7;;;;;
2023/07/23 13:04:39;;;;;;;4.8;2.5;;;;;;;28.57;39.04;;;;;
2023/07/23 13:14:39;;;;;;;4.8;2.5;;;;;;;28.94;37.6;;;;;
2023/07/23 13:25:40;;;;;;;6.8;3.1;;;;;;;29.32;38.8;;;;;
2023/07/23 13:35:40;;;;;;;6.8;3.1;;;;;;;29.6;37.01;;;;;
2023/07/23 13:45:40;;;;;;;6.8;3.1;;;;;;;29.35;34.82;;;;;
2023/07/23 13:56:40;;;;;;;4;2.3;;;;;;;29.02;38.17;;;;;
2023/07/23 14:07:40;;;;;;;4;2.3;;;;;;;29.72;34.21;;;;;
2023/07/23 14:17:40;;;;;;;4;2.3;;;;;;;30.05;32.14;;;;;
2023/07/23 14:28:40;;;;;;;4.4;2.5;;;;;;;30.34;33.17;;;;;
2023/07/23 14:38:40;;;;;;;4.4;2.5;;;;;;;29.74;34.57;;;;;
2023/07/23 14:49:40;;;;;;;5.4;2.7;;;;;;;30.51;34.14;;;;;
2023/07/23 15:00:46;;;;;;;5.4;2.7;;;;;;;30.6;34.79;;;;;
2023/07/23 15:11:40;;;;;;;5.4;2.7;;;;;;;31.87;31.42;;;;;
2023/07/23 15:21:40;;;;;;;7;2.7;;;;;;;33.06;32.17;;;;;
2023/07/23 15:31:40;;;;;;;7;2.7;;;;;;;34.96;27.87;;;;;
2023/07/23 15:42:40;;;;;;;7;2.7;;;;;;;36.29;27.64;;;;;
2023/07/23 15:52:40;;;;;;;4.6;2;;;;;;;35.47;28.29;;;;;
2023/07/23 16:02:40;;;;;;;4.6;2;;;;;;;34.6;30.04;;;;;
2023/07/23 16:13:40;;;;;;;4.6;2;;;;;;;34.52;29.88;;;;;
2023/07/23 16:23:40;;;;;;;4.8;2.1;;;;;;;32.28;33.33;;;;;
2023/07/23 16:33:40;;;;;;;4.8;2.1;;;;;;;31.84;33.51;;;;;
2023/07/23 16:44:41;;;;;;;4.8;2.1;;;;;;;30.32;34.88;;;;;
2023/07/23 16:54:40;;;;;;;5.4;2.6;;;;;;;29.45;36.91;;;;;
2023/07/23 17:05:40;;;;;;;5.4;2.6;;;;;;;29.82;38.46;;;;;
2023/07/23 17:16:40;;;;;;;5.4;2.6;;;;;;;32.1;34.08;;;;;
2023/07/23 17:27:40;;;;;;;5.9;2.8;;;;;;;30.3;36.36;;;;;
2023/07/23 17:37:40;;;;;;;5.9;2.8;;;;;;;28.69;37.47;;;;;
2023/07/23 17:47:40;;;;;;;5.9;2.8;;;;;;;27.58;40.11;;;;;
2023/07/23 17:57:40;;;;;;;8.3;3.5;;;;;;;26.57;42.01;;;;;
2023/07/23 18:08:40;;;;;;;8.3;3.5;;;;;;;25.64;45.27;;;;;
2023/07/23 18:18:40;;;;;;;8.3;3.5;;;;;;;24.87;47.1;;;;;
2023/07/23 18:28:03;;;;;;;7.7;4.1;;;;;;;24.18;48.84;;;;;
2023/07/23 18:38:04;;;;;;;7.7;4.1;;;;;;;23.72;47.61;;;;;
2023/07/23 18:48:03;;;;;;;7.7;4.1;;;;;;;23.3;47.61;;;;;
2023/07/23 18:59:03;;;;;;;7.8;3.9;;;;;;;22.49;51.23;;;;;
2023/07/23 19:09:03;;;;;;;7.8;3.9;;;;;;;22.39;50.89;;;;;
2023/07/23 19:20:03;;;;;;;7.3;3.8;;;;;;;22.13;50.72;;;;;
2023/07/23 19:30:03;;;;;;;7.3;3.8;;;;;;;21.89;52.61;;;;;
2023/07/23 19:41:03;;;;;;;7.3;3.8;;;;;;;21.91;51.64;;;;;
2023/07/23 19:51:04;;;;;;;7.6;4;;;;;;;22.09;49.99;;;;;
2023/07/23 20:01:05;;;;;;;7.6;4;;;;;;;22.16;50.19;;;;;
2023/07/23 20:12:04;;;;;;;7.6;4;;;;;;;22.31;49.96;;;;;
2023/07/23 20:23:04;;;;;;;7.1;4.4;;;;;;;22.34;48.81;;;;;
2023/07/23 20:33:04;;;;;;;7.1;4.4;;;;;;;22.19;48.55;;;;;
2023/07/23 20:43:04;;;;;;;7.1;4.4;;;;;;;22.07;49.77;;;;;
2023/07/23 20:54:04;;;;;;;8.3;3.7;;;;;;;21.99;49.38;;;;;
2023/07/23 21:05:04;;;;;;;8.3;3.7;;;;;;;21.98;48.94;;;;;
2023/07/23 21:15:04;;;;;;;8.3;3.7;;;;;;;21.87;48.91;;;;;
2023/07/23 21:26:04;;;;;;;6;3.6;;;;;;;21.73;50.12;;;;;
2023/07/23 21:36:04;;;;;;;6;3.6;;;;;;;21.65;49.75;;;;;
2023/07/23 21:47:04;;;;;;;6;3.6;;;;;;;21.63;50.54;;;;;
2023/07/23 21:58:04;;;;;;;6.6;3.5;;;;;;;21.48;51.17;;;;;
2023/07/23 22:08:04;;;;;;;6.6;3.5;;;;;;;21.59;50.39;;;;;
2023/07/23 22:18:04;;;;;;;6.6;3.5;;;;;;;21.55;50.94;;;;;
2023/07/23 22:29:04;;;;;;;6.5;3.7;;;;;;;21.52;51.29;;;;;
2023/07/23 22:40:04;;;;;;;6.5;3.7;;;;;;;21.39;50.72;;;;;
2023/07/23 22:50:04;;;;;;;6.6;3.5;;;;;;;21.32;52.44;;;;;
2023/07/23 23:00:05;;;;;;;6.6;3.5;;;;;;;21.3;51.68;;;;;
2023/07/23 23:11:04;;;;;;;6.6;3.5;;;;;;;21.41;51.98;;;;;
2023/07/23 23:22:04;;;;;;;5.5;3.1;;;;;;;21.49;51.77;;;;;
2023/07/23 23:33:04;;;;;;;5.5;3.1;;;;;;;21.44;52.85;;;;;
2023/07/23 23:44:04;;;;;;;5.5;3.1;;;;;;;21.45;52.63;;;;;
2023/07/23 23:55:04;;;;;;;5.6;3;;;;;;;21.33;52.79;;;;;
